createdAt,value
2024-01-11T00:01:10.336Z,36.69
2024-01-11T00:03:37.790Z,36.66
2024-01-11T00:06:05.796Z,36.68
2024-01-11T00:08:33.447Z,36.62
2024-01-11T00:11:01.107Z,36.75
2024-01-11T00:13:28.537Z,36.83
2024-01-11T00:15:55.984Z,36.79
2024-01-11T00:18:23.593Z,36.80
2024-01-11T00:20:51.051Z,36.68
2024-01-11T00:23:18.585Z,36.62
2024-01-11T00:25:46.145Z,36.78
2024-01-11T00:28:13.614Z,36.74
2024-01-11T00:30:41.015Z,36.73
2024-01-11T00:33:08.629Z,36.76
2024-01-11T00:35:36.162Z,36.72
2024-01-11T00:38:03.921Z,36.78
2024-01-11T00:40:31.386Z,36.90
2024-01-11T00:42:58.865Z,36.89
2024-01-11T00:45:26.258Z,36.97
2024-01-11T00:47:53.887Z,36.88
2024-01-11T00:50:21.368Z,36.91
2024-01-11T00:52:48.736Z,37.05
2024-01-11T00:55:17.442Z,37.07
2024-01-11T00:57:44.848Z,37.01
2024-01-11T01:00:15.216Z,37.03
2024-01-11T01:02:42.941Z,37.05
2024-01-11T01:05:10.447Z,36.97
2024-01-11T01:07:37.847Z,37.07
2024-01-11T01:10:05.601Z,36.80
2024-01-11T01:12:32.999Z,36.68
2024-01-11T01:15:00.515Z,36.65
2024-01-11T01:17:27.992Z,36.59
2024-01-11T01:19:55.540Z,36.54
2024-01-11T01:22:22.984Z,36.44
2024-01-11T01:24:50.535Z,36.46
2024-01-11T01:27:18.070Z,36.33
2024-01-11T01:29:45.939Z,36.46
2024-01-11T01:32:13.506Z,36.39
2024-01-11T01:34:40.942Z,36.39
2024-01-11T01:37:08.334Z,36.39
2024-01-11T01:39:38.941Z,36.37
2024-01-11T01:42:07.785Z,36.36
2024-01-11T01:44:35.346Z,36.32
2024-01-11T01:47:04.130Z,36.36
2024-01-11T01:49:31.784Z,36.28
2024-01-11T01:51:59.270Z,36.08
2024-01-11T01:54:26.718Z,36.09
2024-01-11T01:56:54.339Z,36.16
2024-01-11T01:59:21.915Z,36.05
2024-01-11T02:01:49.535Z,36.12
2024-01-11T02:04:17.105Z,36.12
2024-01-11T02:06:46.256Z,36.24
2024-01-11T02:09:14.661Z,36.14
2024-01-11T02:11:45.969Z,36.23
2024-01-11T02:14:13.423Z,36.03
2024-01-11T02:16:40.886Z,36.11
2024-01-11T02:19:08.712Z,35.92
2024-01-11T02:21:36.216Z,36.02
2024-01-11T02:24:07.593Z,36.18
2024-01-11T02:26:35.333Z,36.15
2024-01-11T02:29:03.281Z,36.13
2024-01-11T02:31:30.864Z,36.07
2024-01-11T02:33:58.512Z,36.20
2024-01-11T02:36:26.412Z,36.15
2024-01-11T02:38:53.935Z,35.85
2024-01-11T02:41:21.423Z,35.85
2024-01-11T02:43:49.628Z,35.76
2024-01-11T02:46:18.036Z,36.16
2024-01-11T02:48:45.869Z,36.06
2024-01-11T02:51:14.112Z,36.12
2024-01-11T02:53:41.666Z,36.06
2024-01-11T02:56:09.211Z,36.10
2024-01-11T02:58:36.699Z,36.07
2024-01-11T03:01:04.759Z,36.32
2024-01-11T03:03:32.329Z,36.34
2024-01-11T03:05:59.945Z,36.45
2024-01-11T03:08:27.688Z,36.41
2024-01-11T03:10:55.198Z,36.50
2024-01-11T03:13:22.749Z,36.50
2024-01-11T03:15:51.284Z,36.34
2024-01-11T03:18:19.562Z,36.64
2024-01-11T03:20:47.353Z,36.34
2024-01-11T03:23:16.467Z,36.58
2024-01-11T03:25:45.287Z,36.66
2024-01-11T03:28:13.415Z,36.51
2024-01-11T03:30:41.039Z,36.39
2024-01-11T03:33:09.529Z,36.33
2024-01-11T03:35:39.931Z,36.30
2024-01-11T03:38:07.848Z,36.28
2024-01-11T03:40:35.452Z,36.12
2024-01-11T03:43:04.288Z,36.16
2024-01-11T03:45:31.823Z,36.11
2024-01-11T03:47:59.406Z,35.95
2024-01-11T03:50:26.980Z,35.69
2024-01-11T03:52:55.608Z,35.62
2024-01-11T03:55:23.634Z,35.64
2024-01-11T03:57:52.414Z,35.72
2024-01-11T04:00:20.302Z,35.50
2024-01-11T04:02:47.956Z,35.51
2024-01-11T04:05:16.878Z,35.43
2024-01-11T04:07:44.536Z,35.58
2024-01-11T04:10:12.333Z,35.85
2024-01-11T04:12:40.458Z,35.56
2024-01-11T04:15:09.707Z,35.65
2024-01-11T04:17:39.477Z,35.73
2024-01-11T04:20:09.730Z,35.50
2024-01-11T04:22:41.346Z,35.81
2024-01-11T04:25:12.373Z,35.72
2024-01-11T04:27:42.756Z,35.79
2024-01-11T04:30:13.420Z,35.75
2024-01-11T04:32:44.401Z,35.93
2024-01-11T04:35:14.099Z,35.84
2024-01-11T04:37:44.376Z,35.90
2024-01-11T04:40:15.406Z,35.96
2024-01-11T04:42:45.083Z,36.09
2024-01-11T04:45:15.393Z,35.91
2024-01-11T04:47:45.976Z,35.85
2024-01-11T04:50:15.791Z,35.99
2024-01-11T04:52:47.442Z,36.09
2024-01-11T04:55:18.433Z,36.13
2024-01-11T04:57:48.956Z,36.08
2024-01-11T05:00:18.852Z,36.16
2024-01-11T05:02:48.593Z,36.23
2024-01-11T05:05:18.738Z,36.26
2024-01-11T05:07:49.430Z,36.60
2024-01-11T05:10:20.468Z,36.87
2024-01-11T05:12:50.808Z,36.77
2024-01-11T05:15:21.506Z,36.89
2024-01-11T05:24:55.240Z,37.22
2024-01-11T05:27:42.505Z,37.58
2024-01-11T05:30:11.201Z,37.92
2024-01-11T05:33:17.433Z,37.98
2024-01-11T05:35:44.255Z,38.18
2024-01-11T05:38:10.947Z,38.12
2024-01-11T05:40:38.720Z,38.10
2024-01-11T05:43:05.529Z,38.15
2024-01-11T05:45:45.863Z,38.17
2024-01-11T05:48:16.309Z,38.21
2024-01-11T05:50:44.119Z,38.22
2024-01-11T05:53:14.050Z,38.43
2024-01-11T05:55:41.054Z,38.59
2024-01-11T05:58:07.717Z,38.82
2024-01-11T06:00:34.740Z,39.01
2024-01-11T06:03:02.316Z,38.74
2024-01-11T06:05:29.267Z,38.90
2024-01-11T06:07:56.261Z,38.89
2024-01-11T06:10:23.343Z,38.97
2024-01-11T06:12:50.203Z,38.88
2024-01-11T06:15:17.564Z,39.10
2024-01-11T06:17:44.537Z,38.84
2024-01-11T06:20:12.285Z,38.79
2024-01-11T06:22:39.830Z,38.64
2024-01-11T06:25:08.005Z,38.84
2024-01-11T06:27:34.940Z,38.63
2024-01-11T06:30:01.892Z,38.65
2024-01-11T06:32:29.153Z,38.70
2024-01-11T06:34:56.481Z,38.60
2024-01-11T06:37:23.800Z,38.74
2024-01-11T06:39:50.897Z,38.66
2024-01-11T06:42:19.205Z,38.73
2024-01-11T06:44:46.887Z,38.77
2024-01-11T06:47:13.732Z,38.63
2024-01-11T06:49:40.640Z,38.78
2024-01-11T06:52:07.749Z,38.73
2024-01-11T06:54:35.103Z,38.85
2024-01-11T06:57:01.962Z,38.56
2024-01-11T06:59:28.974Z,38.90
2024-01-11T07:01:55.770Z,39.17
2024-01-11T07:04:22.673Z,38.84
2024-01-11T07:06:49.821Z,38.84
2024-01-11T07:09:17.575Z,38.63
2024-01-11T07:11:44.923Z,38.60
2024-01-11T07:14:12.280Z,38.67
2024-01-11T07:16:39.590Z,38.42
2024-01-11T07:19:06.805Z,38.49
2024-01-11T07:21:33.807Z,38.65
2024-01-11T07:24:00.828Z,38.45
2024-01-11T07:26:27.890Z,38.60
2024-01-11T07:28:58.101Z,38.53
2024-01-11T07:31:24.957Z,38.65
2024-01-11T07:33:51.892Z,38.75
2024-01-11T07:36:19.275Z,38.59
2024-01-11T07:38:46.071Z,38.92
2024-01-11T07:41:13.265Z,38.60
2024-01-11T07:43:49.180Z,38.44
2024-01-11T07:46:28.987Z,38.50
2024-01-11T07:49:06.387Z,38.52
2024-01-11T07:51:35.262Z,38.47
2024-01-11T07:54:03.036Z,38.58
2024-01-11T07:56:30.253Z,38.41
2024-01-11T07:58:57.092Z,38.34
2024-01-11T08:01:23.890Z,38.35
2024-01-11T08:03:52.720Z,38.66
2024-01-11T08:06:19.680Z,38.30
2024-01-11T08:08:52.095Z,38.53
2024-01-11T08:11:19.480Z,38.25
2024-01-11T08:13:46.410Z,38.34
2024-01-11T08:16:17.385Z,38.21
2024-01-11T08:18:44.491Z,38.10
2024-01-11T08:21:11.285Z,38.06
2024-01-11T08:23:49.193Z,37.82
2024-01-11T08:26:16.568Z,38.05
2024-01-11T08:28:43.513Z,37.80
2024-01-11T08:31:10.680Z,37.78
2024-01-11T08:34:44.328Z,40.35
2024-01-11T08:37:12.193Z,38.58
2024-01-11T08:39:41.960Z,38.25
2024-01-11T08:42:10.268Z,38.19
2024-01-11T08:44:37.929Z,38.14
2024-01-11T08:47:05.459Z,38.30
2024-01-11T08:57:16.720Z,37.71
2024-01-11T08:59:44.324Z,37.71
2024-01-11T09:02:16.523Z,37.96
2024-01-11T09:04:48.840Z,37.73
2024-01-11T09:07:17.324Z,37.49
2024-01-11T09:09:51.288Z,37.49
2024-01-11T09:12:24.174Z,37.45
2024-01-11T09:14:51.698Z,37.52
2024-01-11T09:17:19.424Z,37.43
2024-01-11T09:19:47.048Z,37.52
2024-01-11T09:22:14.744Z,37.49
2024-01-11T09:32:26.941Z,37.44
2024-01-11T09:34:54.868Z,37.30
2024-01-11T09:37:22.438Z,37.29
2024-01-11T09:39:50.069Z,37.53
2024-01-11T09:42:18.389Z,37.33
2024-01-11T09:44:46.030Z,37.55
2024-01-11T09:47:16.192Z,37.67
2024-01-11T09:49:47.654Z,37.74
2024-01-11T09:52:16.523Z,37.78
2024-01-11T09:54:44.287Z,37.80
2024-01-11T09:57:12.066Z,38.11
2024-01-11T09:59:39.735Z,37.91
2024-01-11T10:02:09.880Z,37.83
2024-01-11T10:04:38.822Z,37.86
2024-01-11T10:07:09.983Z,37.72
2024-01-11T10:09:37.868Z,37.47
2024-01-11T10:12:06.515Z,37.20
2024-01-11T10:14:34.275Z,37.48
2024-01-11T10:17:02.699Z,37.08
2024-01-11T10:19:30.665Z,37.11
2024-01-11T10:21:59.957Z,36.81
2024-01-11T10:24:27.663Z,36.97
2024-01-11T10:26:59.484Z,36.91
2024-01-11T10:29:33.369Z,36.86
2024-01-11T10:32:00.971Z,36.44
2024-01-11T10:34:28.575Z,36.23
2024-01-11T10:36:55.981Z,36.09
2024-01-11T10:39:27.268Z,36.21
2024-01-11T10:42:13.188Z,36.25
2024-01-11T10:44:41.420Z,36.16
2024-01-11T10:47:09.164Z,36.10
2024-01-11T10:49:38.886Z,35.93
2024-01-11T10:52:07.352Z,36.13
2024-01-11T10:54:35.887Z,36.10
2024-01-11T10:57:06.360Z,35.90
2024-01-11T10:59:34.024Z,35.87
2024-01-11T11:02:06.008Z,35.79
2024-01-11T11:04:34.121Z,35.82
2024-01-11T11:07:02.324Z,35.83
2024-01-11T11:09:29.793Z,35.73
2024-01-11T11:11:57.643Z,36.04
2024-01-11T11:14:25.563Z,35.86
2024-01-11T11:16:53.343Z,35.95
2024-01-11T11:19:21.730Z,35.79
2024-01-11T11:21:49.436Z,35.85
2024-01-11T11:24:17.947Z,35.95
2024-01-11T11:26:45.537Z,35.91
2024-01-11T11:29:13.059Z,35.87
2024-01-11T11:31:44.653Z,35.61
2024-01-11T11:34:13.079Z,35.44
2024-01-11T11:36:44.170Z,35.59
2024-01-11T11:39:14.444Z,35.53
2024-01-11T11:41:43.913Z,35.68
2024-01-11T11:44:13.508Z,35.58
2024-01-11T11:46:40.976Z,35.46
2024-01-11T11:49:08.529Z,35.37
2024-01-11T11:51:36.021Z,35.57
2024-01-11T11:54:03.736Z,35.51
2024-01-11T11:56:31.940Z,35.66
2024-01-11T11:58:59.340Z,35.75
2024-01-11T12:01:26.876Z,35.44
2024-01-11T12:03:54.638Z,35.30
2024-01-11T12:06:24.274Z,35.25
2024-01-11T12:08:53.707Z,35.08
2024-01-11T12:11:22.197Z,35.04
2024-01-11T12:13:49.950Z,35.14
2024-01-11T12:16:17.295Z,35.40
2024-01-11T12:18:44.786Z,35.62
2024-01-11T12:21:12.513Z,35.59
2024-01-11T12:23:40.584Z,35.60
2024-01-11T12:26:12.786Z,36.12
2024-01-11T12:28:40.880Z,36.30
2024-01-11T12:31:08.449Z,36.11
2024-01-11T12:33:36.882Z,36.21
2024-01-11T12:36:06.180Z,36.20
2024-01-11T12:38:34.720Z,36.36
2024-01-11T12:41:02.164Z,36.28
2024-01-11T12:43:29.882Z,36.45
2024-01-11T12:45:57.428Z,36.12
2024-01-11T12:48:25.604Z,36.23
2024-01-11T12:51:09.920Z,36.50
2024-01-11T12:53:43.669Z,36.77
2024-01-11T12:56:14.701Z,36.92
2024-01-11T12:58:42.563Z,36.62
2024-01-11T13:01:12.011Z,36.74
2024-01-11T13:03:40.079Z,36.82
2024-01-11T13:06:10.652Z,36.84
2024-01-11T13:08:40.836Z,36.73
2024-01-11T13:11:08.746Z,36.80
2024-01-11T13:13:36.326Z,36.75
2024-01-11T13:16:12.642Z,36.98
2024-01-11T13:18:40.396Z,37.30
2024-01-11T13:21:11.253Z,37.27
2024-01-11T13:23:39.584Z,37.37
2024-01-11T13:26:07.618Z,37.63
2024-01-11T13:28:35.158Z,37.73
2024-01-11T13:31:03.785Z,37.94
2024-01-11T13:33:31.497Z,38.10
2024-01-11T13:35:59.029Z,38.02
2024-01-11T13:38:26.584Z,37.86
2024-01-11T13:40:54.274Z,37.80
2024-01-11T13:43:21.668Z,37.99
2024-01-11T13:45:49.721Z,38.00
2024-01-11T13:48:17.221Z,38.15
2024-01-11T13:50:44.725Z,38.01
2024-01-11T13:53:12.140Z,37.86
2024-01-11T13:55:40.514Z,37.87
2024-01-11T13:58:08.736Z,37.84
2024-01-11T14:00:36.333Z,38.13
2024-01-11T14:03:06.554Z,38.14
2024-01-11T14:05:34.535Z,37.92
2024-01-11T14:08:02.752Z,38.06
2024-01-11T14:10:30.257Z,37.94
2024-01-11T14:12:57.758Z,38.23
2024-01-11T14:15:26.270Z,38.30
2024-01-11T14:17:54.287Z,38.41
2024-01-11T14:20:22.396Z,38.49
2024-01-11T14:22:50.856Z,38.62
2024-01-11T14:25:21.800Z,38.40
2024-01-11T14:27:49.312Z,38.65
2024-01-11T14:30:16.801Z,38.42
2024-01-11T14:32:46.404Z,38.50
2024-01-11T14:35:15.301Z,38.73
2024-01-11T14:37:44.096Z,38.59
2024-01-11T14:40:14.674Z,38.61
2024-01-11T14:42:43.534Z,38.82
2024-01-11T14:45:11.221Z,38.91
2024-01-11T14:47:38.936Z,38.36
2024-01-11T14:50:11.139Z,38.32
2024-01-11T14:52:42.031Z,38.26
2024-01-11T14:55:11.790Z,38.33
2024-01-11T14:57:40.660Z,38.15
2024-01-11T15:00:09.562Z,38.15
2024-01-11T15:02:37.374Z,38.44
2024-01-11T15:05:05.357Z,38.50
2024-01-11T15:07:33.694Z,38.43
2024-01-11T15:10:01.233Z,38.32
2024-01-11T15:12:28.709Z,38.42
2024-01-11T15:14:56.218Z,38.36
2024-01-11T15:17:23.925Z,38.18
2024-01-11T15:19:52.106Z,37.89
2024-01-11T15:22:19.602Z,37.86
2024-01-11T15:24:54.006Z,37.84
2024-01-11T15:27:23.200Z,37.90
2024-01-11T15:29:54.449Z,37.92
2024-01-11T15:32:23.712Z,37.85
2024-01-11T15:34:54.161Z,37.91
2024-01-11T15:37:24.371Z,37.73
2024-01-11T15:39:52.180Z,37.75
2024-01-11T15:42:20.298Z,37.58
2024-01-11T15:44:47.836Z,37.32
2024-01-11T15:47:15.434Z,37.33
2024-01-11T15:49:43.298Z,37.34
2024-01-11T15:52:12.119Z,37.24
2024-01-11T15:54:39.634Z,37.19
2024-01-11T15:57:08.143Z,36.93
2024-01-11T15:59:36.307Z,37.04
2024-01-11T16:02:07.377Z,36.95
2024-01-11T16:04:35.952Z,36.83
2024-01-11T16:07:04.176Z,36.82
2024-01-11T16:09:32.193Z,36.62
2024-01-11T16:12:03.619Z,36.57
2024-01-11T16:14:33.157Z,36.63
2024-01-11T16:17:02.169Z,36.55
2024-01-11T16:19:32.755Z,36.43
2024-01-11T16:22:01.278Z,36.33
2024-01-11T16:24:32.161Z,36.68
2024-01-11T16:27:01.523Z,36.38
2024-01-11T16:29:32.217Z,36.52
2024-01-11T16:32:03.482Z,36.37
2024-01-11T16:34:34.055Z,36.59
2024-01-11T16:37:04.482Z,36.62
2024-01-11T16:39:35.185Z,36.79
2024-01-11T16:42:05.213Z,36.78
2024-01-11T16:44:35.063Z,37.06
2024-01-11T16:47:05.275Z,37.16
2024-01-11T16:49:34.837Z,37.32
2024-01-11T16:52:05.847Z,37.38
2024-01-11T16:54:36.243Z,37.12
2024-01-11T16:57:06.197Z,37.08
2024-01-11T16:59:37.291Z,37.48
2024-01-11T17:02:07.268Z,37.68
2024-01-11T17:04:37.293Z,37.85
2024-01-11T17:07:08.253Z,37.70
2024-01-11T17:09:39.236Z,37.46
2024-01-11T17:12:09.418Z,37.38
2024-01-11T17:14:39.381Z,37.23
2024-01-11T17:24:46.536Z,37.68
2024-01-11T17:27:15.333Z,37.62
2024-01-11T17:29:42.661Z,37.54
2024-01-11T17:32:09.501Z,37.85
2024-01-11T17:34:36.632Z,37.78
2024-01-11T17:37:03.523Z,37.81
2024-01-11T17:39:30.248Z,37.67
2024-01-11T17:42:00.081Z,37.66
2024-01-11T17:44:28.253Z,37.93
2024-01-11T17:46:54.947Z,38.04
2024-01-11T17:49:21.716Z,38.12
2024-01-11T17:51:48.670Z,38.17
2024-01-11T17:54:16.409Z,38.11
2024-01-11T17:56:43.407Z,38.28
2024-01-11T17:59:10.451Z,38.20
2024-01-11T18:01:37.284Z,38.08
2024-01-11T18:04:04.879Z,37.89
2024-01-11T18:06:32.568Z,37.83
2024-01-11T18:08:59.580Z,37.98
2024-01-11T18:11:26.613Z,38.15
2024-01-11T18:13:55.320Z,38.19
2024-01-11T18:16:23.138Z,38.35
2024-01-11T18:18:50.339Z,38.48
2024-01-11T18:21:17.147Z,38.45
2024-01-11T18:23:44.363Z,38.34
2024-01-11T18:26:11.389Z,38.24
2024-01-11T18:28:38.839Z,38.20
2024-01-11T18:31:06.215Z,38.16
2024-01-11T18:33:33.124Z,38.31
2024-01-11T18:35:59.971Z,38.12
2024-01-11T18:38:27.115Z,38.21
2024-01-11T18:40:54.147Z,38.41
2024-01-11T18:43:20.856Z,38.43
2024-01-11T18:45:50.306Z,38.52
2024-01-11T18:48:19.070Z,38.86
2024-01-11T18:50:46.278Z,39.03
2024-01-11T18:53:13.129Z,38.93
2024-01-11T18:55:40.324Z,38.91
2024-01-11T18:58:07.910Z,38.81
2024-01-11T19:00:35.229Z,38.84
2024-01-11T19:03:02.210Z,38.90
2024-01-11T19:05:30.693Z,38.69
2024-01-11T19:08:00.078Z,38.70
2024-01-11T19:10:26.959Z,38.79
2024-01-11T19:12:54.077Z,38.73
2024-01-11T19:15:20.841Z,38.43
2024-01-11T19:17:48.058Z,38.24
2024-01-11T19:20:17.539Z,38.21
2024-01-11T19:22:44.417Z,38.05
2024-01-11T19:25:11.703Z,37.99
2024-01-11T19:27:38.512Z,38.15
2024-01-11T19:30:08.553Z,37.95
2024-01-11T19:32:35.861Z,37.97
2024-01-11T19:35:02.831Z,37.91
2024-01-11T19:37:32.460Z,37.98
2024-01-11T19:39:59.393Z,37.71
2024-01-11T19:42:26.142Z,37.58
2024-01-11T19:44:53.046Z,37.46
2024-01-11T19:47:19.977Z,37.38
2024-01-11T19:49:46.737Z,37.24
2024-01-11T19:52:13.538Z,37.31
2024-01-11T19:54:40.896Z,37.42
2024-01-11T19:57:07.609Z,37.29
2024-01-11T19:59:34.584Z,37.44
2024-01-11T20:02:02.400Z,37.37
2024-01-11T20:04:32.861Z,37.43
2024-01-11T20:06:59.908Z,37.38
2024-01-11T20:09:26.797Z,37.38
2024-01-11T20:11:53.816Z,37.49
2024-01-11T20:14:20.743Z,37.37
2024-01-11T20:16:47.397Z,37.51
2024-01-11T20:19:14.211Z,37.42
2024-01-11T20:21:41.284Z,37.56
2024-01-11T20:24:08.064Z,37.65
2024-01-11T20:26:35.712Z,44.88
2024-01-11T20:29:02.554Z,46.74
2024-01-11T20:31:32.030Z,45.81
2024-01-11T20:34:02.345Z,45.11
2024-01-11T20:36:29.401Z,45.08
2024-01-11T20:38:56.078Z,45.16
2024-01-11T20:41:24.032Z,45.22
2024-01-11T20:43:50.858Z,43.06
2024-01-11T20:46:21.735Z,42.37
2024-01-11T20:48:48.501Z,43.25
2024-01-11T20:52:55.654Z,43.13
2024-01-11T20:55:23.242Z,38.53
2024-01-11T20:57:50.873Z,37.70
2024-01-11T21:00:20.318Z,35.18
2024-01-11T21:02:48.287Z,34.15
2024-01-11T21:05:16.187Z,31.78
2024-01-11T21:07:43.995Z,30.58
2024-01-11T21:10:11.751Z,29.63
2024-01-11T21:12:39.407Z,28.85
2024-01-11T21:15:08.904Z,29.04
2024-01-11T21:17:37.206Z,28.74
2024-01-11T21:20:06.598Z,28.12
2024-01-11T21:22:34.267Z,28.09
2024-01-11T21:25:02.244Z,27.20
2024-01-11T21:27:29.741Z,27.22
2024-01-11T21:29:57.285Z,27.07
2024-01-11T21:32:24.960Z,26.25
2024-01-11T21:34:52.494Z,25.70
2024-01-11T21:37:20.073Z,25.87
2024-01-11T21:39:47.517Z,25.52
2024-01-11T21:42:15.080Z,25.08
2024-01-11T21:44:42.513Z,25.40
2024-01-11T21:47:10.054Z,25.19
2024-01-11T21:49:37.565Z,25.53
2024-01-11T21:52:05.357Z,25.44
2024-01-11T21:54:35.678Z,25.59
2024-01-11T21:57:03.435Z,25.81
2024-01-11T21:59:31.038Z,26.14
2024-01-11T22:01:58.680Z,26.49
2024-01-11T22:04:26.077Z,26.47
2024-01-11T22:06:53.573Z,26.80
2024-01-11T22:09:21.147Z,26.86
2024-01-11T22:11:48.732Z,26.66
2024-01-11T22:14:16.567Z,26.45
2024-01-11T22:16:44.000Z,26.62
2024-01-11T22:19:11.619Z,26.53
2024-01-11T22:21:40.726Z,26.62
2024-01-11T22:24:08.546Z,26.52
2024-01-11T22:26:36.046Z,26.76
2024-01-11T22:29:04.116Z,27.19
2024-01-11T22:31:38.284Z,27.11
2024-01-11T22:34:05.880Z,27.15
2024-01-11T22:36:33.346Z,27.27
2024-01-11T22:39:00.969Z,27.39
2024-01-11T22:41:30.782Z,27.46
2024-01-11T22:43:58.367Z,28.36
2024-01-11T22:46:25.993Z,28.34
2024-01-11T22:48:53.508Z,27.57
2024-01-11T22:51:21.026Z,27.34
2024-01-11T22:53:48.691Z,26.98
2024-01-11T22:56:16.172Z,26.62
2024-01-11T22:58:43.705Z,26.71
2024-01-11T23:01:11.151Z,26.85
2024-01-11T23:03:38.735Z,26.59
2024-01-11T23:06:06.309Z,26.37
2024-01-11T23:08:33.784Z,26.15
2024-01-11T23:11:04.115Z,26.33
2024-01-11T23:13:31.638Z,26.34
2024-01-11T23:15:59.050Z,26.90
2024-01-11T23:18:26.531Z,26.58
2024-01-11T23:20:54.085Z,26.70
2024-01-11T23:23:21.577Z,26.43
2024-01-11T23:25:49.035Z,26.51
2024-01-11T23:28:16.554Z,26.69
2024-01-11T23:30:44.096Z,26.53
2024-01-11T23:33:12.558Z,26.67
2024-01-11T23:35:40.918Z,26.76
2024-01-11T23:38:08.346Z,26.77
2024-01-11T23:40:35.743Z,26.73
2024-01-11T23:43:03.234Z,26.98
2024-01-11T23:45:30.612Z,26.96
2024-01-11T23:47:59.057Z,26.99
2024-01-11T23:50:26.703Z,26.90
2024-01-11T23:52:54.274Z,27.13
2024-01-11T23:55:21.642Z,27.20
2024-01-11T23:57:49.150Z,27.10
